Time,TemperatureF,DewpointF,PressureIn,WindDirection,WindDirectionDegrees,WindSpeedMPH,WindSpeedGustMPH,Humidity,HourlyPrecipIn,Conditions,Clouds,dailyrainin,SoftwareType,DateUTC
2013-02-17 00:00:00,47.5,38.1,31.02,North,-999,-999.0,-999.0,46,0.00,,,0.00,meteohub,2013-02-17 08:00:00,
2013-02-17 00:05:00,47.3,37.6,31.02,North,-999,-999.0,-999.0,46,0.00,,,0.00,meteohub,2013-02-17 08:05:00,
2013-02-17 00:11:00,47.3,37.6,31.02,North,-999,-999.0,-999.0,46,0.00,,,0.00,meteohub,2013-02-17 08:11:00,
2013-02-17 00:16:00,47.1,37.0,31.02,North,-999,-999.0,-999.0,46,0.00,,,0.00,meteohub,2013-02-17 08:16:00,
2013-02-17 00:21:00,47.1,37.0,31.02,North,-999,-999.0,-999.0,46,0.00,,,0.00,meteohub,2013-02-17 08:21:00,
2013-02-17 00:26:00,46.9,36.9,31.02,North,-999,-999.0,-999.0,46,0.00,,,0.00,meteohub,2013-02-17 08:26:00,
2013-02-17 00:31:00,46.8,37.2,31.02,North,-999,-999.0,-999.0,46,0.00,,,0.00,meteohub,2013-02-17 08:31:00,
2013-02-17 00:36:00,46.6,37.0,31.02,North,-999,-999.0,-999.0,46,0.00,,,0.00,meteohub,2013-02-17 08:36:00,
2013-02-17 00:41:00,46.4,37.2,31.02,North,-999,-999.0,-999.0,46,0.00,,,0.00,meteohub,2013-02-17 08:41:00,
2013-02-17 00:46:00,46.4,37.2,31.02,North,-999,-999.0,-999.0,46,0.00,,,0.00,meteohub,2013-02-17 08:46:00,
2013-02-17 00:51:00,46.2,37.0,31.02,North,-999,-999.0,-999.0,46,0.00,,,0.00,meteohub,2013-02-17 08:51:00,
2013-02-17 00:56:00,46.0,36.9,31.02,North,-999,-999.0,-999.0,46,0.00,,,0.00,meteohub,2013-02-17 08:56:00,
2013-02-17 01:01:00,46.0,36.9,31.02,North,-999,-999.0,-999.0,46,0.00,,,0.00,meteohub,2013-02-17 09:01:00,
2013-02-17 01:07:00,45.9,36.7,31.02,North,-999,-999.0,-999.0,46,0.00,,,0.00,meteohub,2013-02-17 09:07:00,
2013-02-17 01:12:00,45.7,36.9,31.02,North,-999,-999.0,-999.0,46,0.00,,,0.00,meteohub,2013-02-17 09:12:00,
2013-02-17 01:17:00,45.7,36.9,31.02,North,-999,-999.0,-999.0,46,0.00,,,0.00,meteohub,2013-02-17 09:17:00,
2013-02-17 01:22:00,45.5,36.7,31.02,North,-999,-999.0,-999.0,46,0.00,,,0.00,meteohub,2013-02-17 09:22:00,
2013-02-17 01:27:00,45.5,36.7,31.02,North,-999,-999.0,-999.0,46,0.00,,,0.00,meteohub,2013-02-17 09:27:00,
2013-02-17 01:32:00,45.3,36.5,31.02,North,-999,-999.0,-999.0,46,0.00,,,0.00,meteohub,2013-02-17 09:32:00,
2013-02-17 01:37:00,45.1,36.3,31.02,North,-999,-999.0,-999.0,46,0.00,,,0.00,meteohub,2013-02-17 09:37:00,
2013-02-17 01:42:00,45.1,36.7,31.02,North,-999,-999.0,-999.0,46,0.00,,,0.00,meteohub,2013-02-17 09:42:00,
2013-02-17 01:47:00,45.1,36.7,31.02,North,-999,-999.0,-999.0,46,0.00,,,0.00,meteohub,2013-02-17 09:47:00,
2013-02-17 01:52:00,45.0,36.5,31.02,North,-999,-999.0,-999.0,46,0.00,,,0.00,meteohub,2013-02-17 09:52:00,
2013-02-17 01:57:00,44.8,36.3,31.02,North,-999,-999.0,-999.0,46,0.00,,,0.00,meteohub,2013-02-17 09:57:00,
2013-02-17 02:02:00,44.8,36.3,31.02,North,-999,-999.0,-999.0,46,0.00,,,0.00,meteohub,2013-02-17 10:02:00,
2013-02-17 02:07:00,44.8,36.3,31.02,North,-999,-999.0,-999.0,46,0.00,,,0.00,meteohub,2013-02-17 10:07:00,
2013-02-17 02:12:00,44.8,36.3,31.02,North,-999,-999.0,-999.0,46,0.00,,,0.00,meteohub,2013-02-17 10:12:00,
2013-02-17 02:17:00,44.8,36.3,31.02,North,-999,-999.0,-999.0,46,0.00,,,0.00,meteohub,2013-02-17 10:17:00,
2013-02-17 02:22:00,44.6,36.1,31.02,North,-999,-999.0,-999.0,46,0.00,,,0.00,meteohub,2013-02-17 10:22:00,
2013-02-17 02:27:00,44.6,36.5,31.02,North,-999,-999.0,-999.0,46,0.00,,,0.00,meteohub,2013-02-17 10:27:00,
2013-02-17 02:32:00,44.6,36.5,31.02,North,-999,-999.0,-999.0,46,0.00,,,0.00,meteohub,2013-02-17 10:32:00,
2013-02-17 02:37:00,44.4,36.3,31.02,North,-999,-999.0,-999.0,46,0.00,,,0.00,meteohub,2013-02-17 10:37:00,
2013-02-17 02:42:00,44.4,36.7,31.02,North,-999,-999.0,-999.0,46,0.00,,,0.00,meteohub,2013-02-17 10:42:00,
2013-02-17 02:47:00,44.4,36.3,31.02,North,-999,-999.0,-999.0,46,0.00,,,0.00,meteohub,2013-02-17 10:47:00,
2013-02-17 02:52:00,44.6,36.9,31.02,North,-999,-999.0,-999.0,46,0.00,,,0.00,meteohub,2013-02-17 10:52:00,
2013-02-17 02:57:00,44.8,37.4,31.02,North,-999,-999.0,-999.0,46,0.00,,,0.00,meteohub,2013-02-17 10:57:00,
2013-02-17 03:02:00,45.1,37.8,31.02,North,-999,-999.0,-999.0,46,0.00,,,0.00,meteohub,2013-02-17 11:02:00,
2013-02-17 03:07:00,45.3,37.9,31.02,North,-999,-999.0,-999.0,46,0.00,,,0.00,meteohub,2013-02-17 11:07:00,
2013-02-17 03:12:00,45.7,38.5,31.02,North,-999,-999.0,-999.0,46,0.00,,,0.00,meteohub,2013-02-17 11:12:00,
2013-02-17 03:17:00,45.9,39.0,31.02,North,-999,-999.0,-999.0,46,0.00,,,0.00,meteohub,2013-02-17 11:17:00,
2013-02-17 03:22:00,46.0,39.2,31.02,North,-999,-999.0,-999.0,47,0.00,,,0.00,meteohub,2013-02-17 11:22:00,
2013-02-17 03:27:00,46.2,39.7,31.02,North,-999,-999.0,-999.0,47,0.00,,,0.00,meteohub,2013-02-17 11:27:00,
2013-02-17 03:32:00,46.6,40.1,31.02,North,-999,-999.0,-999.0,47,0.00,,,0.00,meteohub,2013-02-17 11:32:00,
2013-02-17 03:38:00,46.6,40.1,31.02,North,-999,-999.0,-999.0,47,0.00,,,0.00,meteohub,2013-02-17 11:38:00,
2013-02-17 03:43:00,46.8,40.3,31.02,North,-999,-999.0,-999.0,46,0.00,,,0.00,meteohub,2013-02-17 11:43:00,
2013-02-17 03:48:00,46.9,40.5,31.02,North,-999,-999.0,-999.0,46,0.00,,,0.00,meteohub,2013-02-17 11:48:00,
2013-02-17 03:53:00,46.9,40.5,31.02,North,-999,-999.0,-999.0,46,0.00,,,0.00,meteohub,2013-02-17 11:53:00,
2013-02-17 03:58:00,47.1,40.6,31.02,North,-999,-999.0,-999.0,46,0.00,,,0.00,meteohub,2013-02-17 11:58:00,
2013-02-17 04:03:00,47.1,40.6,31.02,North,-999,-999.0,-999.0,46,0.00,,,0.00,meteohub,2013-02-17 12:03:00,
2013-02-17 04:08:00,47.3,40.8,31.02,North,-999,-999.0,-999.0,46,0.00,,,0.00,meteohub,2013-02-17 12:08:00,
2013-02-17 04:13:00,47.5,41.0,31.02,North,-999,-999.0,-999.0,46,0.00,,,0.00,meteohub,2013-02-17 12:13:00,
2013-02-17 04:18:00,47.8,41.7,31.02,North,-999,-999.0,-999.0,47,0.00,,,0.00,meteohub,2013-02-17 12:18:00,
2013-02-17 04:23:00,48.0,41.9,31.02,North,-999,-999.0,-999.0,47,0.00,,,0.00,meteohub,2013-02-17 12:23:00,
2013-02-17 04:29:00,48.0,41.9,31.02,North,-999,-999.0,-999.0,47,0.00,,,0.00,meteohub,2013-02-17 12:29:00,
2013-02-17 04:34:00,48.2,42.1,31.02,North,-999,-999.0,-999.0,47,0.00,,,0.00,meteohub,2013-02-17 12:34:00,
2013-02-17 04:39:00,48.4,42.3,31.02,North,-999,-999.0,-999.0,47,0.00,,,0.00,meteohub,2013-02-17 12:39:00,
2013-02-17 04:44:00,48.4,42.4,31.02,North,-999,-999.0,-999.0,47,0.00,,,0.00,meteohub,2013-02-17 12:44:00,
2013-02-17 04:49:00,48.4,42.4,31.02,North,-999,-999.0,-999.0,47,0.00,,,0.00,meteohub,2013-02-17 12:49:00,
2013-02-17 04:54:00,48.4,42.4,31.02,North,-999,-999.0,-999.0,47,0.00,,,0.00,meteohub,2013-02-17 12:54:00,
2013-02-17 04:59:00,48.4,42.4,31.02,North,-999,-999.0,-999.0,47,0.00,,,0.00,meteohub,2013-02-17 12:59:00,
2013-02-17 05:04:00,48.4,42.8,31.02,North,-999,-999.0,-999.0,47,0.00,,,0.00,meteohub,2013-02-17 13:04:00,
2013-02-17 05:09:00,48.4,42.8,31.02,North,-999,-999.0,-999.0,47,0.00,,,0.00,meteohub,2013-02-17 13:09:00,
2013-02-17 05:14:00,48.4,42.8,31.02,North,-999,-999.0,-999.0,47,0.00,,,0.00,meteohub,2013-02-17 13:14:00,
2013-02-17 05:19:00,48.4,43.2,31.02,North,-999,-999.0,-999.0,47,0.00,,,0.00,meteohub,2013-02-17 13:19:00,
2013-02-17 05:25:00,48.4,43.2,31.02,North,-999,-999.0,-999.0,47,0.00,,,0.00,meteohub,2013-02-17 13:25:00,
2013-02-17 05:30:00,48.4,43.2,31.02,North,-999,-999.0,-999.0,47,0.00,,,0.00,meteohub,2013-02-17 13:30:00,
2013-02-17 05:35:00,48.4,43.2,31.02,North,-999,-999.0,-999.0,47,0.00,,,0.00,meteohub,2013-02-17 13:35:00,
2013-02-17 05:40:00,48.4,43.5,31.02,North,-999,-999.0,-999.0,47,0.00,,,0.00,meteohub,2013-02-17 13:40:00,
2013-02-17 05:45:00,48.6,43.7,31.02,North,-999,-999.0,-999.0,47,0.00,,,0.00,meteohub,2013-02-17 13:45:00,
2013-02-17 05:50:00,48.6,43.7,31.02,North,-999,-999.0,-999.0,47,0.00,,,0.00,meteohub,2013-02-17 13:50:00,
2013-02-17 05:55:00,48.4,43.5,31.02,North,-999,-999.0,-999.0,47,0.00,,,0.00,meteohub,2013-02-17 13:55:00,
2013-02-17 06:00:00,48.4,43.5,31.02,North,-999,-999.0,-999.0,47,0.00,,,0.00,meteohub,2013-02-17 14:00:00,
2013-02-17 06:05:00,48.4,43.5,31.02,North,-999,-999.0,-999.0,47,0.00,,,0.00,meteohub,2013-02-17 14:05:00,
2013-02-17 06:10:00,48.2,43.5,31.02,North,-999,-999.0,-999.0,47,0.00,,,0.00,meteohub,2013-02-17 14:10:00,
2013-02-17 06:16:00,48.2,43.5,31.02,North,-999,-999.0,-999.0,47,0.00,,,0.00,meteohub,2013-02-17 14:16:00,
2013-02-17 06:21:00,48.0,43.3,31.02,North,-999,-999.0,-999.0,47,0.00,,,0.00,meteohub,2013-02-17 14:21:00,
2013-02-17 06:26:00,47.8,43.2,31.02,North,-999,-999.0,-999.0,47,0.00,,,0.00,meteohub,2013-02-17 14:26:00,
2013-02-17 06:31:00,47.8,43.2,31.02,North,-999,-999.0,-999.0,47,0.00,,,0.00,meteohub,2013-02-17 14:31:00,
2013-02-17 06:36:00,47.8,43.2,31.02,North,-999,-999.0,-999.0,47,0.00,,,0.00,meteohub,2013-02-17 14:36:00,
2013-02-17 06:41:00,47.8,43.2,31.02,North,-999,-999.0,-999.0,47,0.00,,,0.00,meteohub,2013-02-17 14:41:00,
2013-02-17 06:46:00,47.7,43.0,31.02,North,-999,-999.0,-999.0,47,0.00,,,0.00,meteohub,2013-02-17 14:46:00,
2013-02-17 06:51:00,47.5,42.8,31.02,North,-999,-999.0,-999.0,47,0.00,,,0.00,meteohub,2013-02-17 14:51:00,
2013-02-17 06:56:00,47.5,42.8,31.02,North,-999,-999.0,-999.0,47,0.00,,,0.00,meteohub,2013-02-17 14:56:00,
2013-02-17 07:02:00,47.5,42.8,31.02,North,-999,-999.0,-999.0,47,0.00,,,0.00,meteohub,2013-02-17 15:02:00,
2013-02-17 07:07:00,47.3,42.8,31.02,North,-999,-999.0,-999.0,47,0.00,,,0.00,meteohub,2013-02-17 15:07:00,
2013-02-17 07:12:00,47.3,42.8,31.02,North,-999,-999.0,-999.0,47,0.00,,,0.00,meteohub,2013-02-17 15:12:00,
2013-02-17 07:17:00,47.3,42.8,31.02,North,-999,-999.0,-999.0,47,0.00,,,0.00,meteohub,2013-02-17 15:17:00,
2013-02-17 07:22:00,47.3,43.0,31.02,North,-999,-999.0,-999.0,47,0.00,,,0.00,meteohub,2013-02-17 15:22:00,
2013-02-17 07:27:00,47.3,43.0,31.02,North,-999,-999.0,-999.0,47,0.00,,,0.00,meteohub,2013-02-17 15:27:00,
2013-02-17 07:32:00,47.3,43.0,31.02,North,-999,-999.0,-999.0,47,0.00,,,0.00,meteohub,2013-02-17 15:32:00,
2013-02-17 07:37:00,47.5,43.2,31.02,North,-999,-999.0,-999.0,47,0.00,,,0.00,meteohub,2013-02-17 15:37:00,
2013-02-17 07:42:00,47.5,43.2,31.02,North,-999,-999.0,-999.0,47,0.00,,,0.00,meteohub,2013-02-17 15:42:00,
2013-02-17 07:47:00,47.7,43.3,31.02,North,-999,-999.0,-999.0,47,0.00,,,0.00,meteohub,2013-02-17 15:47:00,
2013-02-17 07:52:00,47.8,43.5,31.02,North,-999,-999.0,-999.0,47,0.00,,,0.00,meteohub,2013-02-17 15:52:00,
2013-02-17 07:57:00,47.8,43.5,31.02,North,-999,-999.0,-999.0,47,0.00,,,0.00,meteohub,2013-02-17 15:57:00,
2013-02-17 08:02:00,48.0,43.7,31.02,North,-999,-999.0,-999.0,47,0.00,,,0.00,meteohub,2013-02-17 16:02:00,
2013-02-17 08:07:00,48.0,43.7,31.02,North,-999,-999.0,-999.0,47,0.00,,,0.00,meteohub,2013-02-17 16:07:00,
2013-02-17 08:12:00,48.2,43.9,31.02,North,-999,-999.0,-999.0,47,0.00,,,0.00,meteohub,2013-02-17 16:12:00,
2013-02-17 08:17:00,48.2,43.9,31.02,North,-999,-999.0,-999.0,47,0.00,,,0.00,meteohub,2013-02-17 16:17:00,
2013-02-17 08:22:00,48.4,44.1,31.02,North,-999,-999.0,-999.0,47,0.00,,,0.00,meteohub,2013-02-17 16:22:00,
2013-02-17 08:27:00,48.6,44.2,31.02,North,-999,-999.0,-999.0,47,0.00,,,0.00,meteohub,2013-02-17 16:27:00,
2013-02-17 08:32:00,48.7,44.4,31.02,North,-999,-999.0,-999.0,47,0.00,,,0.00,meteohub,2013-02-17 16:32:00,
2013-02-17 08:37:00,48.9,45.0,31.02,North,-999,-999.0,-999.0,47,0.00,,,0.00,meteohub,2013-02-17 16:37:00,
2013-02-17 08:42:00,49.1,45.1,31.02,North,-999,-999.0,-999.0,47,0.00,,,0.00,meteohub,2013-02-17 16:42:00,
2013-02-17 08:48:00,49.5,45.5,31.02,North,-999,-999.0,-999.0,47,0.00,,,0.00,meteohub,2013-02-17 16:48:00,
2013-02-17 08:53:00,49.5,45.1,31.02,North,-999,-999.0,-999.0,47,0.00,,,0.00,meteohub,2013-02-17 16:53:00,
2013-02-17 08:58:00,49.5,45.1,31.02,North,-999,-999.0,-999.0,47,0.00,,,0.00,meteohub,2013-02-17 16:58:00,
2013-02-17 09:03:00,49.8,45.1,31.02,North,-999,-999.0,-999.0,47,0.00,,,0.00,meteohub,2013-02-17 17:03:00,
2013-02-17 09:08:00,50.0,45.0,31.02,North,-999,-999.0,-999.0,47,0.00,,,0.00,meteohub,2013-02-17 17:08:00,
2013-02-17 09:13:00,50.2,45.1,31.02,North,-999,-999.0,-999.0,47,0.00,,,0.00,meteohub,2013-02-17 17:13:00,
2013-02-17 09:18:00,50.4,45.3,31.02,North,-999,-999.0,-999.0,47,0.00,,,0.00,meteohub,2013-02-17 17:18:00,
2013-02-17 09:23:00,50.5,45.3,31.02,North,-999,-999.0,-999.0,47,0.00,,,0.00,meteohub,2013-02-17 17:23:00,
2013-02-17 09:28:00,50.5,45.3,31.02,North,-999,-999.0,-999.0,47,0.00,,,0.00,meteohub,2013-02-17 17:28:00,
2013-02-17 09:33:00,50.9,45.3,31.02,North,-999,-999.0,-999.0,47,0.00,,,0.00,meteohub,2013-02-17 17:33:00,
2013-02-17 09:38:00,51.1,45.1,31.02,North,-999,-999.0,-999.0,47,0.00,,,0.00,meteohub,2013-02-17 17:38:00,
2013-02-17 09:44:00,51.3,45.0,31.02,North,-999,-999.0,-999.0,47,0.00,,,0.00,meteohub,2013-02-17 17:44:00,
2013-02-17 09:49:00,51.4,44.4,31.02,North,-999,-999.0,-999.0,47,0.00,,,0.00,meteohub,2013-02-17 17:49:00,
2013-02-17 09:54:00,51.6,43.9,31.02,North,-999,-999.0,-999.0,47,0.00,,,0.00,meteohub,2013-02-17 17:54:00,
2013-02-17 09:59:00,51.6,43.0,31.02,North,-999,-999.0,-999.0,47,0.00,,,0.00,meteohub,2013-02-17 17:59:00,
2013-02-17 10:04:00,52.0,42.4,31.02,North,-999,-999.0,-999.0,47,0.00,,,0.00,meteohub,2013-02-17 18:04:00,
2013-02-17 10:09:00,52.3,42.8,31.02,North,-999,-999.0,-999.0,47,0.00,,,0.00,meteohub,2013-02-17 18:09:00,
2013-02-17 10:14:00,52.7,42.4,31.02,North,-999,-999.0,-999.0,47,0.00,,,0.00,meteohub,2013-02-17 18:14:00,
2013-02-17 10:19:00,52.9,41.4,31.02,North,-999,-999.0,-999.0,47,0.00,,,0.00,meteohub,2013-02-17 18:19:00,
2013-02-17 10:24:00,53.4,42.3,31.02,North,-999,-999.0,-999.0,47,0.00,,,0.00,meteohub,2013-02-17 18:24:00,
2013-02-17 10:29:00,53.8,42.3,31.02,North,-999,-999.0,-999.0,47,0.00,,,0.00,meteohub,2013-02-17 18:29:00,
2013-02-17 10:35:00,54.3,42.4,31.02,North,-999,-999.0,-999.0,47,0.00,,,0.00,meteohub,2013-02-17 18:35:00,
2013-02-17 10:40:00,54.5,41.7,31.02,North,-999,-999.0,-999.0,47,0.00,,,0.00,meteohub,2013-02-17 18:40:00,
2013-02-17 10:45:00,55.0,40.5,31.02,North,-999,-999.0,-999.0,47,0.00,,,0.00,meteohub,2013-02-17 18:45:00,
2013-02-17 10:50:00,55.6,40.1,31.02,North,-999,-999.0,-999.0,46,0.00,,,0.00,meteohub,2013-02-17 18:50:00,
2013-02-17 10:55:00,55.8,39.9,31.02,North,-999,-999.0,-999.0,46,0.00,,,0.00,meteohub,2013-02-17 18:55:00,
2013-02-17 11:00:00,56.3,40.3,31.02,North,-999,-999.0,-999.0,46,0.00,,,0.00,meteohub,2013-02-17 19:00:00,
2013-02-17 11:05:00,56.7,40.3,31.02,North,-999,-999.0,-999.0,46,0.00,,,0.00,meteohub,2013-02-17 19:05:00,
2013-02-17 11:10:00,57.0,40.1,31.02,North,-999,-999.0,-999.0,46,0.00,,,0.00,meteohub,2013-02-17 19:10:00,
2013-02-17 11:15:00,57.4,39.4,31.02,North,-999,-999.0,-999.0,46,0.00,,,0.00,meteohub,2013-02-17 19:15:00,
2013-02-17 11:20:00,57.7,39.2,31.02,North,-999,-999.0,-999.0,46,0.00,,,0.00,meteohub,2013-02-17 19:20:00,
2013-02-17 11:26:00,58.3,39.7,31.02,North,-999,-999.0,-999.0,46,0.00,,,0.00,meteohub,2013-02-17 19:26:00,
2013-02-17 11:31:00,58.8,39.7,31.02,North,-999,-999.0,-999.0,46,0.00,,,0.00,meteohub,2013-02-17 19:31:00,
2013-02-17 11:36:00,59.2,39.0,31.02,North,-999,-999.0,-999.0,46,0.00,,,0.00,meteohub,2013-02-17 19:36:00,
2013-02-17 11:41:00,59.2,34.9,31.02,North,-999,-999.0,-999.0,46,0.00,,,0.00,meteohub,2013-02-17 19:41:00,
2013-02-17 11:46:00,59.5,35.8,31.02,North,-999,-999.0,-999.0,46,0.00,,,0.00,meteohub,2013-02-17 19:46:00,
2013-02-17 11:51:00,59.9,35.6,31.02,North,-999,-999.0,-999.0,46,0.00,,,0.00,meteohub,2013-02-17 19:51:00,
2013-02-17 11:56:00,60.1,35.1,31.02,North,-999,-999.0,-999.0,46,0.00,,,0.00,meteohub,2013-02-17 19:56:00,
2013-02-17 12:01:00,60.4,35.4,31.02,North,-999,-999.0,-999.0,46,0.00,,,0.00,meteohub,2013-02-17 20:01:00,
2013-02-17 12:06:00,61.0,35.2,31.02,North,-999,-999.0,-999.0,46,0.00,,,0.00,meteohub,2013-02-17 20:06:00,
2013-02-17 12:11:00,61.2,34.7,31.02,North,-999,-999.0,-999.0,46,0.00,,,0.00,meteohub,2013-02-17 20:11:00,
2013-02-17 12:16:00,61.3,34.9,31.02,North,-999,-999.0,-999.0,46,0.00,,,0.00,meteohub,2013-02-17 20:16:00,
2013-02-17 12:22:00,61.5,35.1,31.02,North,-999,-999.0,-999.0,46,0.00,,,0.00,meteohub,2013-02-17 20:22:00,
2013-02-17 12:27:00,62.1,34.9,31.02,North,-999,-999.0,-999.0,46,0.00,,,0.00,meteohub,2013-02-17 20:27:00,
2013-02-17 12:32:00,62.4,35.1,31.02,North,-999,-999.0,-999.0,46,0.00,,,0.00,meteohub,2013-02-17 20:32:00,
2013-02-17 12:37:00,62.4,35.1,31.02,North,-999,-999.0,-999.0,46,0.00,,,0.00,meteohub,2013-02-17 20:37:00,
2013-02-17 12:42:00,62.4,35.1,31.02,North,-999,-999.0,-999.0,46,0.00,,,0.00,meteohub,2013-02-17 20:42:00,
2013-02-17 12:47:00,62.8,34.7,31.02,North,-999,-999.0,-999.0,46,0.00,,,0.00,meteohub,2013-02-17 20:47:00,
2013-02-17 12:52:00,63.0,34.9,31.02,North,-999,-999.0,-999.0,46,0.00,,,0.00,meteohub,2013-02-17 20:52:00,
2013-02-17 12:57:00,63.0,34.9,31.02,North,-999,-999.0,-999.0,46,0.00,,,0.00,meteohub,2013-02-17 20:57:00,
2013-02-17 13:02:00,63.1,35.8,31.02,North,-999,-999.0,-999.0,46,0.00,,,0.00,meteohub,2013-02-17 21:02:00,
2013-02-17 13:07:00,63.3,35.2,31.02,North,-999,-999.0,-999.0,46,0.00,,,0.00,meteohub,2013-02-17 21:07:00,
2013-02-17 13:12:00,63.7,35.6,31.02,North,-999,-999.0,-999.0,46,0.00,,,0.00,meteohub,2013-02-17 21:12:00,
2013-02-17 13:17:00,63.9,35.6,31.02,North,-999,-999.0,-999.0,46,0.00,,,0.00,meteohub,2013-02-17 21:17:00,
2013-02-17 13:22:00,64.0,35.8,31.02,North,-999,-999.0,-999.0,46,0.00,,,0.00,meteohub,2013-02-17 21:22:00,
2013-02-17 13:27:00,64.2,36.0,31.02,North,-999,-999.0,-999.0,46,0.00,,,0.00,meteohub,2013-02-17 21:27:00,
2013-02-17 13:32:00,64.6,35.6,31.02,North,-999,-999.0,-999.0,46,0.00,,,0.00,meteohub,2013-02-17 21:32:00,
2013-02-17 13:37:00,64.8,35.8,31.02,North,-999,-999.0,-999.0,46,0.00,,,0.00,meteohub,2013-02-17 21:37:00,
2013-02-17 13:42:00,64.8,35.8,31.02,North,-999,-999.0,-999.0,46,0.00,,,0.00,meteohub,2013-02-17 21:42:00,
2013-02-17 13:47:00,64.8,35.8,31.02,North,-999,-999.0,-999.0,46,0.00,,,0.00,meteohub,2013-02-17 21:47:00,
2013-02-17 13:52:00,64.9,36.0,31.02,North,-999,-999.0,-999.0,46,0.00,,,0.00,meteohub,2013-02-17 21:52:00,
2013-02-17 13:57:00,65.1,36.1,31.02,North,-999,-999.0,-999.0,46,0.00,,,0.00,meteohub,2013-02-17 21:57:00,
2013-02-17 14:02:00,65.5,36.3,31.02,North,-999,-999.0,-999.0,46,0.00,,,0.00,meteohub,2013-02-17 22:02:00,
2013-02-17 14:07:00,65.7,36.5,31.02,North,-999,-999.0,-999.0,46,0.00,,,0.00,meteohub,2013-02-17 22:07:00,
2013-02-17 14:12:00,65.8,36.7,31.02,North,-999,-999.0,-999.0,45,0.00,,,0.00,meteohub,2013-02-17 22:12:00,
2013-02-17 14:17:00,66.0,36.9,31.02,North,-999,-999.0,-999.0,45,0.00,,,0.00,meteohub,2013-02-17 22:17:00,
2013-02-17 14:22:00,66.2,36.3,31.02,North,-999,-999.0,-999.0,45,0.00,,,0.00,meteohub,2013-02-17 22:22:00,
2013-02-17 14:27:00,66.4,36.3,31.02,North,-999,-999.0,-999.0,46,0.00,,,0.00,meteohub,2013-02-17 22:27:00,
2013-02-17 14:32:00,66.2,36.3,31.02,North,-999,-999.0,-999.0,46,0.00,,,0.00,meteohub,2013-02-17 22:32:00,
2013-02-17 14:37:00,66.4,36.3,31.02,North,-999,-999.0,-999.0,46,0.00,,,0.00,meteohub,2013-02-17 22:37:00,
2013-02-17 14:42:00,66.4,37.2,31.02,North,-999,-999.0,-999.0,45,0.00,,,0.00,meteohub,2013-02-17 22:42:00,
2013-02-17 14:47:00,66.4,37.2,31.02,North,-999,-999.0,-999.0,45,0.00,,,0.00,meteohub,2013-02-17 22:47:00,
2013-02-17 14:52:00,66.2,37.8,31.02,North,-999,-999.0,-999.0,45,0.00,,,0.00,meteohub,2013-02-17 22:52:00,
2013-02-17 14:57:00,65.8,37.4,31.02,North,-999,-999.0,-999.0,46,0.00,,,0.00,meteohub,2013-02-17 22:57:00,
2013-02-17 15:02:00,65.5,37.0,31.02,North,-999,-999.0,-999.0,46,0.00,,,0.00,meteohub,2013-02-17 23:02:00,
2013-02-17 15:07:00,65.1,36.9,31.02,North,-999,-999.0,-999.0,46,0.00,,,0.00,meteohub,2013-02-17 23:07:00,
2013-02-17 15:12:00,64.9,36.7,31.02,North,-999,-999.0,-999.0,46,0.00,,,0.00,meteohub,2013-02-17 23:12:00,
2013-02-17 15:17:00,64.8,36.5,31.02,North,-999,-999.0,-999.0,46,0.00,,,0.00,meteohub,2013-02-17 23:17:00,
2013-02-17 15:22:00,64.4,36.1,31.02,North,-999,-999.0,-999.0,46,0.00,,,0.00,meteohub,2013-02-17 23:22:00,
2013-02-17 15:27:00,64.0,36.5,31.02,North,-999,-999.0,-999.0,46,0.00,,,0.00,meteohub,2013-02-17 23:27:00,
2013-02-17 15:32:00,63.9,37.0,31.02,North,-999,-999.0,-999.0,46,0.00,,,0.00,meteohub,2013-02-17 23:32:00,
2013-02-17 15:38:00,63.5,36.7,31.02,North,-999,-999.0,-999.0,46,0.00,,,0.00,meteohub,2013-02-17 23:38:00,
2013-02-17 15:43:00,63.5,36.7,31.02,North,-999,-999.0,-999.0,46,0.00,,,0.00,meteohub,2013-02-17 23:43:00,
2013-02-17 15:48:00,63.3,36.7,31.02,North,-999,-999.0,-999.0,46,0.00,,,0.00,meteohub,2013-02-17 23:48:00,
2013-02-17 15:53:00,63.1,36.5,31.02,North,-999,-999.0,-999.0,46,0.00,,,0.00,meteohub,2013-02-17 23:53:00,
2013-02-17 15:58:00,63.1,36.5,31.02,North,-999,-999.0,-999.0,46,0.00,,,0.00,meteohub,2013-02-17 23:58:00,
2013-02-17 16:03:00,63.1,36.5,31.02,North,-999,-999.0,-999.0,46,0.00,,,0.00,meteohub,2013-02-18 00:03:00,
2013-02-17 16:08:00,63.0,36.3,31.02,North,-999,-999.0,-999.0,46,0.00,,,0.00,meteohub,2013-02-18 00:08:00,
2013-02-17 16:13:00,63.0,36.3,31.02,North,-999,-999.0,-999.0,46,0.00,,,0.00,meteohub,2013-02-18 00:13:00,
2013-02-17 16:18:00,62.6,36.0,31.02,North,-999,-999.0,-999.0,46,0.00,,,0.00,meteohub,2013-02-18 00:18:00,
2013-02-17 16:23:00,62.4,35.8,31.02,North,-999,-999.0,-999.0,46,0.00,,,0.00,meteohub,2013-02-18 00:23:00,
2013-02-17 16:29:00,62.2,36.3,31.02,North,-999,-999.0,-999.0,46,0.00,,,0.00,meteohub,2013-02-18 00:29:00,
2013-02-17 16:34:00,62.1,36.1,31.02,North,-999,-999.0,-999.0,46,0.00,,,0.00,meteohub,2013-02-18 00:34:00,
2013-02-17 16:39:00,61.9,35.2,31.02,North,-999,-999.0,-999.0,46,0.00,,,0.00,meteohub,2013-02-18 00:39:00,
2013-02-17 16:44:00,61.7,35.8,31.02,North,-999,-999.0,-999.0,46,0.00,,,0.00,meteohub,2013-02-18 00:44:00,
2013-02-17 16:49:00,61.7,35.8,31.02,North,-999,-999.0,-999.0,46,0.00,,,0.00,meteohub,2013-02-18 00:49:00,
2013-02-17 16:54:00,61.5,35.6,31.02,North,-999,-999.0,-999.0,46,0.00,,,0.00,meteohub,2013-02-18 00:54:00,
2013-02-17 16:59:00,61.3,35.6,31.02,North,-999,-999.0,-999.0,46,0.00,,,0.00,meteohub,2013-02-18 00:59:00,
2013-02-17 17:04:00,61.2,35.4,31.02,North,-999,-999.0,-999.0,46,0.00,,,0.00,meteohub,2013-02-18 01:04:00,
2013-02-17 17:09:00,61.0,35.2,31.02,North,-999,-999.0,-999.0,46,0.00,,,0.00,meteohub,2013-02-18 01:09:00,
2013-02-17 17:14:00,60.6,34.9,31.02,North,-999,-999.0,-999.0,46,0.00,,,0.00,meteohub,2013-02-18 01:14:00,
2013-02-17 17:19:00,60.4,35.4,31.02,North,-999,-999.0,-999.0,46,0.00,,,0.00,meteohub,2013-02-18 01:19:00,
2013-02-17 17:25:00,60.1,35.1,31.02,North,-999,-999.0,-999.0,46,0.00,,,0.00,meteohub,2013-02-18 01:25:00,
2013-02-17 17:30:00,59.9,34.9,31.02,North,-999,-999.0,-999.0,46,0.00,,,0.00,meteohub,2013-02-18 01:30:00,
2013-02-17 17:35:00,59.5,34.5,31.02,North,-999,-999.0,-999.0,46,0.00,,,0.00,meteohub,2013-02-18 01:35:00,
2013-02-17 17:40:00,59.4,35.1,31.02,North,-999,-999.0,-999.0,46,0.00,,,0.00,meteohub,2013-02-18 01:40:00,
2013-02-17 17:45:00,59.0,34.7,31.02,North,-999,-999.0,-999.0,46,0.00,,,0.00,meteohub,2013-02-18 01:45:00,
2013-02-17 17:50:00,58.5,34.9,31.02,North,-999,-999.0,-999.0,46,0.00,,,0.00,meteohub,2013-02-18 01:50:00,
2013-02-17 17:55:00,58.1,35.1,31.02,North,-999,-999.0,-999.0,46,0.00,,,0.00,meteohub,2013-02-18 01:55:00,
2013-02-17 18:00:00,57.6,35.8,31.02,North,-999,-999.0,-999.0,46,0.00,,,0.00,meteohub,2013-02-18 02:00:00,
2013-02-17 18:05:00,57.0,36.0,31.02,North,-999,-999.0,-999.0,46,0.00,,,0.00,meteohub,2013-02-18 02:05:00,
2013-02-17 18:10:00,56.7,36.1,31.02,North,-999,-999.0,-999.0,46,0.00,,,0.00,meteohub,2013-02-18 02:10:00,
2013-02-17 18:16:00,56.5,36.0,31.02,North,-999,-999.0,-999.0,46,0.00,,,0.00,meteohub,2013-02-18 02:16:00,
2013-02-17 18:21:00,56.1,36.1,31.02,North,-999,-999.0,-999.0,46,0.00,,,0.00,meteohub,2013-02-18 02:21:00,
2013-02-17 18:26:00,55.8,35.8,31.02,North,-999,-999.0,-999.0,46,0.00,,,0.00,meteohub,2013-02-18 02:26:00,
2013-02-17 18:31:00,55.2,36.0,31.02,North,-999,-999.0,-999.0,46,0.00,,,0.00,meteohub,2013-02-18 02:31:00,
2013-02-17 18:36:00,55.0,36.1,31.02,North,-999,-999.0,-999.0,46,0.00,,,0.00,meteohub,2013-02-18 02:36:00,
2013-02-17 18:41:00,54.7,36.0,31.02,North,-999,-999.0,-999.0,46,0.00,,,0.00,meteohub,2013-02-18 02:41:00,
2013-02-17 18:46:00,54.5,36.3,31.02,North,-999,-999.0,-999.0,46,0.00,,,0.00,meteohub,2013-02-18 02:46:00,
2013-02-17 18:51:00,54.3,36.1,31.02,North,-999,-999.0,-999.0,46,0.00,,,0.00,meteohub,2013-02-18 02:51:00,
2013-02-17 18:56:00,54.1,36.3,31.02,North,-999,-999.0,-999.0,46,0.00,,,0.00,meteohub,2013-02-18 02:56:00,
2013-02-17 19:02:00,53.8,36.1,31.02,North,-999,-999.0,-999.0,46,0.00,,,0.00,meteohub,2013-02-18 03:02:00,
2013-02-17 19:07:00,53.6,36.3,31.02,North,-999,-999.0,-999.0,46,0.00,,,0.00,meteohub,2013-02-18 03:07:00,
2013-02-17 19:12:00,53.4,36.7,31.02,North,-999,-999.0,-999.0,46,0.00,,,0.00,meteohub,2013-02-18 03:12:00,
2013-02-17 19:17:00,53.2,36.5,31.02,North,-999,-999.0,-999.0,46,0.00,,,0.00,meteohub,2013-02-18 03:17:00,
2013-02-17 19:22:00,53.1,36.9,31.02,North,-999,-999.0,-999.0,46,0.00,,,0.00,meteohub,2013-02-18 03:22:00,
2013-02-17 19:27:00,52.9,36.7,31.02,North,-999,-999.0,-999.0,46,0.00,,,0.00,meteohub,2013-02-18 03:27:00,
2013-02-17 19:32:00,52.5,36.3,31.02,North,-999,-999.0,-999.0,46,0.00,,,0.00,meteohub,2013-02-18 03:32:00,
2013-02-17 19:37:00,52.3,36.7,31.02,North,-999,-999.0,-999.0,46,0.00,,,0.00,meteohub,2013-02-18 03:37:00,
2013-02-17 19:42:00,52.2,36.5,31.02,North,-999,-999.0,-999.0,46,0.00,,,0.00,meteohub,2013-02-18 03:42:00,
2013-02-17 19:47:00,52.0,36.3,31.02,North,-999,-999.0,-999.0,46,0.00,,,0.00,meteohub,2013-02-18 03:47:00,
2013-02-17 19:52:00,51.8,36.1,31.02,North,-999,-999.0,-999.0,46,0.00,,,0.00,meteohub,2013-02-18 03:52:00,
2013-02-17 19:57:00,51.6,36.5,31.02,North,-999,-999.0,-999.0,46,0.00,,,0.00,meteohub,2013-02-18 03:57:00,
2013-02-17 20:02:00,51.4,36.7,31.02,North,-999,-999.0,-999.0,46,0.00,,,0.00,meteohub,2013-02-18 04:02:00,
2013-02-17 20:07:00,51.3,36.5,31.02,North,-999,-999.0,-999.0,46,0.00,,,0.00,meteohub,2013-02-18 04:07:00,
2013-02-17 20:12:00,51.1,36.3,31.02,North,-999,-999.0,-999.0,46,0.00,,,0.00,meteohub,2013-02-18 04:12:00,
2013-02-17 20:17:00,50.7,36.5,31.02,North,-999,-999.0,-999.0,46,0.00,,,0.00,meteohub,2013-02-18 04:17:00,
2013-02-17 20:22:00,50.5,36.3,31.02,North,-999,-999.0,-999.0,46,0.00,,,0.00,meteohub,2013-02-18 04:22:00,
2013-02-17 20:27:00,50.4,36.5,31.02,North,-999,-999.0,-999.0,46,0.00,,,0.00,meteohub,2013-02-18 04:27:00,
2013-02-17 20:32:00,50.2,36.3,31.02,North,-999,-999.0,-999.0,46,0.00,,,0.00,meteohub,2013-02-18 04:32:00,
2013-02-17 20:37:00,50.0,36.3,31.02,North,-999,-999.0,-999.0,46,0.00,,,0.00,meteohub,2013-02-18 04:37:00,
2013-02-17 20:42:00,49.8,36.5,31.02,North,-999,-999.0,-999.0,47,0.00,,,0.00,meteohub,2013-02-18 04:42:00,
2013-02-17 20:47:00,49.6,36.7,31.02,North,-999,-999.0,-999.0,47,0.00,,,0.00,meteohub,2013-02-18 04:47:00,
2013-02-17 20:52:00,49.5,36.5,31.02,North,-999,-999.0,-999.0,47,0.00,,,0.00,meteohub,2013-02-18 04:52:00,
2013-02-17 20:57:00,49.3,36.3,31.02,North,-999,-999.0,-999.0,47,0.00,,,0.00,meteohub,2013-02-18 04:57:00,
2013-02-17 21:00:00,49.3,36.3,31.02,North,-999,-999.0,-999.0,47,0.00,,,0.00,meteohub,2013-02-18 05:00:00,
2013-02-17 21:02:00,49.1,36.7,31.02,North,-999,-999.0,-999.0,47,0.00,,,0.00,meteohub,2013-02-18 05:02:00,
2013-02-17 21:04:00,49.1,36.7,31.02,North,-999,-999.0,-999.0,47,0.00,,,0.00,meteohub,2013-02-18 05:04:00,
2013-02-17 21:09:00,48.9,36.5,31.02,North,-999,-999.0,-999.0,47,0.00,,,0.00,meteohub,2013-02-18 05:09:00,
2013-02-17 21:14:00,48.7,36.7,31.02,North,-999,-999.0,-999.0,47,0.00,,,0.00,meteohub,2013-02-18 05:14:00,
2013-02-17 21:19:00,48.7,36.7,31.02,North,-999,-999.0,-999.0,47,0.00,,,0.00,meteohub,2013-02-18 05:19:00,
2013-02-17 21:24:00,48.6,36.9,31.02,North,-999,-999.0,-999.0,47,0.00,,,0.00,meteohub,2013-02-18 05:24:00,
2013-02-17 21:29:00,48.4,36.7,31.02,North,-999,-999.0,-999.0,47,0.00,,,0.00,meteohub,2013-02-18 05:29:00,
2013-02-17 21:34:00,48.2,36.7,31.02,North,-999,-999.0,-999.0,47,0.00,,,0.00,meteohub,2013-02-18 05:34:00,
2013-02-17 21:40:00,48.2,37.0,31.02,North,-999,-999.0,-999.0,47,0.00,,,0.00,meteohub,2013-02-18 05:40:00,
2013-02-17 21:45:00,48.0,36.9,31.02,North,-999,-999.0,-999.0,47,0.00,,,0.00,meteohub,2013-02-18 05:45:00,
2013-02-17 21:50:00,47.8,36.7,31.02,North,-999,-999.0,-999.0,47,0.00,,,0.00,meteohub,2013-02-18 05:50:00,
2013-02-17 21:55:00,47.7,36.9,31.02,North,-999,-999.0,-999.0,47,0.00,,,0.00,meteohub,2013-02-18 05:55:00,
2013-02-17 22:00:00,47.7,36.9,31.02,North,-999,-999.0,-999.0,47,0.00,,,0.00,meteohub,2013-02-18 06:00:00,
2013-02-17 22:05:00,47.5,36.7,31.02,North,-999,-999.0,-999.0,47,0.00,,,0.00,meteohub,2013-02-18 06:05:00,
2013-02-17 22:10:00,47.5,36.7,31.02,North,-999,-999.0,-999.0,47,0.00,,,0.00,meteohub,2013-02-18 06:10:00,
2013-02-17 22:15:00,47.3,36.5,31.02,North,-999,-999.0,-999.0,47,0.00,,,0.00,meteohub,2013-02-18 06:15:00,
2013-02-17 22:20:00,47.3,36.9,31.02,North,-999,-999.0,-999.0,47,0.00,,,0.00,meteohub,2013-02-18 06:20:00,
2013-02-17 22:25:00,47.1,36.7,31.02,North,-999,-999.0,-999.0,47,0.00,,,0.00,meteohub,2013-02-18 06:25:00,
2013-02-17 22:31:00,46.9,36.5,31.02,North,-999,-999.0,-999.0,47,0.00,,,0.00,meteohub,2013-02-18 06:31:00,
2013-02-17 22:36:00,46.9,36.5,31.02,North,-999,-999.0,-999.0,47,0.00,,,0.00,meteohub,2013-02-18 06:36:00,
2013-02-17 22:41:00,46.8,36.7,31.02,North,-999,-999.0,-999.0,47,0.00,,,0.00,meteohub,2013-02-18 06:41:00,
2013-02-17 22:46:00,46.6,36.5,31.02,North,-999,-999.0,-999.0,47,0.00,,,0.00,meteohub,2013-02-18 06:46:00,
2013-02-17 22:51:00,46.6,37.0,31.02,North,-999,-999.0,-999.0,47,0.00,,,0.00,meteohub,2013-02-18 06:51:00,
2013-02-17 22:56:00,46.4,36.9,31.02,North,-999,-999.0,-999.0,47,0.00,,,0.00,meteohub,2013-02-18 06:56:00,
2013-02-17 23:01:00,46.4,36.9,31.02,North,-999,-999.0,-999.0,47,0.00,,,0.00,meteohub,2013-02-18 07:01:00,
2013-02-17 23:06:00,46.4,36.9,31.02,North,-999,-999.0,-999.0,47,0.00,,,0.00,meteohub,2013-02-18 07:06:00,
2013-02-17 23:11:00,46.2,37.0,31.02,North,-999,-999.0,-999.0,47,0.00,,,0.00,meteohub,2013-02-18 07:11:00,
2013-02-17 23:16:00,46.2,37.0,31.02,North,-999,-999.0,-999.0,47,0.00,,,0.00,meteohub,2013-02-18 07:16:00,
2013-02-17 23:22:00,46.0,36.9,31.02,North,-999,-999.0,-999.0,47,0.00,,,0.00,meteohub,2013-02-18 07:22:00,
2013-02-17 23:27:00,46.0,37.2,31.02,North,-999,-999.0,-999.0,47,0.00,,,0.00,meteohub,2013-02-18 07:27:00,
2013-02-17 23:32:00,45.9,37.0,31.02,North,-999,-999.0,-999.0,47,0.00,,,0.00,meteohub,2013-02-18 07:32:00,
2013-02-17 23:37:00,45.9,37.0,31.02,North,-999,-999.0,-999.0,47,0.00,,,0.00,meteohub,2013-02-18 07:37:00,
2013-02-17 23:42:00,45.9,37.0,31.02,North,-999,-999.0,-999.0,47,0.00,,,0.00,meteohub,2013-02-18 07:42:00,
2013-02-17 23:47:00,45.7,36.9,31.02,North,-999,-999.0,-999.0,47,0.00,,,0.00,meteohub,2013-02-18 07:47:00,
2013-02-17 23:52:00,45.7,36.9,31.02,North,-999,-999.0,-999.0,47,0.00,,,0.00,meteohub,2013-02-18 07:52:00,
2013-02-17 23:57:00,45.5,36.7,31.02,North,-999,-999.0,-999.0,47,0.00,,,0.00,meteohub,2013-02-18 07:57:00,